sensor_id;sensor_type;location;lat;lon;timestamp;pressure;altitude;pressure_sealevel;temperature;humidity
10840;BME280;5473;42.706;23.328;2023-02-10T00:00:14;32090.94;;;-142.93;100.00
10840;BME280;5473;42.706;23.328;2023-02-10T00:02:41;31880.38;;;-142.93;100.00
10840;BME280;5473;42.706;23.328;2023-02-10T00:05:08;30948.84;;;-142.93;100.00
10840;BME280;5473;42.706;23.328;2023-02-10T00:07:34;29231.44;;;-142.93;100.00
10840;BME280;5473;42.706;23.328;2023-02-10T00:10:01;27574.44;;;-142.93;100.00
10840;BME280;5473;42.706;23.328;2023-02-10T00:12:29;26304.97;;;-142.93;100.00
10840;BME280;5473;42.706;23.328;2023-02-10T00:14:56;25035.97;;;-142.93;100.00
10840;BME280;5473;42.706;23.328;2023-02-10T00:17:23;23767.47;;;-142.93;100.00
10840;BME280;5473;42.706;23.328;2023-02-10T00:19:50;23006.59;;;-142.93;100.00
10840;BME280;5473;42.706;23.328;2023-02-10T00:22:16;21992.38;;;-142.93;100.00
10840;BME280;5473;42.706;23.328;2023-02-10T00:24:43;21231.91;;;-142.93;100.00
10840;BME280;5473;42.706;23.328;2023-02-10T00:27:10;20218.22;;;-142.93;100.00
10840;BME280;5473;42.706;23.328;2023-02-10T00:29:38;19711.50;;;-142.93;100.00
10840;BME280;5473;42.706;23.328;2023-02-10T00:32:06;18951.53;;;-142.93;100.00
10840;BME280;5473;42.706;23.328;2023-02-10T00:34:33;18191.78;;;-142.93;100.00
10840;BME280;5473;42.706;23.328;2023-02-10T00:37:00;17432.19;;;-142.93;100.00
10840;BME280;5473;42.706;23.328;2023-02-10T00:39:26;16419.66;;;-142.93;100.00
10840;BME280;5473;42.706;23.328;2023-02-10T00:41:53;15660.47;;;-142.93;100.00
10840;BME280;5473;42.706;23.328;2023-02-10T00:44:20;14901.44;;;-142.93;100.00
10840;BME280;5473;42.706;23.328;2023-02-10T00:46:48;14648.47;;;-142.93;100.00
10840;BME280;5473;42.706;23.328;2023-02-10T00:49:15;13636.81;;;-142.93;100.00
10840;BME280;5473;42.706;23.328;2023-02-10T00:51:42;12625.44;;;-142.93;100.00
10840;BME280;5473;42.706;23.328;2023-02-10T00:54:11;11614.38;;;-142.93;100.00
10840;BME280;5473;42.706;23.328;2023-02-10T00:56:38;10603.63;;;-142.93;100.00
10840;BME280;5473;42.706;23.328;2023-02-10T00:59:04;10098.38;;;-142.93;100.00
10840;BME280;5473;42.706;23.328;2023-02-10T01:01:31;9593.19;;;-142.93;100.00
10840;BME280;5473;42.706;23.328;2023-02-10T01:03:59;9340.63;;;-142.93;100.00
10840;BME280;5473;42.706;23.328;2023-02-10T01:06:26;9088.09;;;-142.93;100.00
10840;BME280;5473;42.706;23.328;2023-02-10T01:08:53;8583.06;;;-142.93;100.00
10840;BME280;5473;42.706;23.328;2023-02-10T01:11:19;8078.13;;;-142.93;100.00
10840;BME280;5473;42.706;23.328;2023-02-10T01:13:46;7573.25;;;-142.93;100.00
10840;BME280;5473;42.706;23.328;2023-02-10T01:16:15;7068.47;;;-142.93;100.00
10840;BME280;5473;42.706;23.328;2023-02-10T01:18:42;6816.09;;;-142.93;100.00
10840;BME280;5473;42.706;23.328;2023-02-10T01:21:13;6311.41;;;-142.93;100.00
10840;BME280;5473;42.706;23.328;2023-02-10T01:23:41;6816.09;;;-142.93;100.00
10840;BME280;5473;42.706;23.328;2023-02-10T01:26:08;6816.09;;;-142.93;100.00
10840;BME280;5473;42.706;23.328;2023-02-10T01:28:36;6816.09;;;-142.93;100.00
10840;BME280;5473;42.706;23.328;2023-02-10T01:31:05;6311.41;;;-142.93;100.00
10840;BME280;5473;42.706;23.328;2023-02-10T01:33:32;6059.09;;;-142.93;100.00
10840;BME280;5473;42.706;23.328;2023-02-10T01:36:03;6059.09;;;-142.93;100.00
10840;BME280;5473;42.706;23.328;2023-02-10T01:38:31;6059.09;;;-142.93;100.00
10840;BME280;5473;42.706;23.328;2023-02-10T01:40:58;6059.09;;;-142.93;100.00
10840;BME280;5473;42.706;23.328;2023-02-10T01:43:25;5806.81;;;-142.93;100.00
10840;BME280;5473;42.706;23.328;2023-02-10T01:45:52;5806.81;;;-142.93;100.00
10840;BME280;5473;42.706;23.328;2023-02-10T01:48:19;5806.81;;;-142.93;100.00
10840;BME280;5473;42.706;23.328;2023-02-10T01:50:49;5806.81;;;-142.93;100.00
10840;BME280;5473;42.706;23.328;2023-02-10T01:53:17;5302.28;;;-142.93;100.00
10840;BME280;5473;42.706;23.328;2023-02-10T01:55:49;4545.66;;;-142.93;100.00
10840;BME280;5473;42.706;23.328;2023-02-10T01:58:21;4041.34;;;-142.93;100.00
10840;BME280;5473;42.706;23.328;2023-02-10T02:00:49;3789.19;;;-142.93;100.00
10840;BME280;5473;42.706;23.328;2023-02-10T02:03:16;3537.09;;;-142.93;100.00
10840;BME280;5473;42.706;23.328;2023-02-10T02:05:44;3284.97;;;-142.93;100.00
10840;BME280;5473;42.706;23.328;2023-02-10T02:08:13;3032.91;;;-142.93;100.00
10840;BME280;5473;42.706;23.328;2023-02-10T02:10:55;2780.84;;;-142.93;100.00
10840;BME280;5473;42.706;23.328;2023-02-10T02:13:35;2780.84;;;-142.93;100.00
10840;BME280;5473;42.706;23.328;2023-02-10T02:16:09;2528.81;;;-142.93;100.00
10840;BME280;5473;42.706;23.328;2023-02-10T02:18:45;2528.81;;;-142.93;100.00
10840;BME280;5473;42.706;23.328;2023-02-10T02:21:39;2528.81;;;-142.93;100.00
10840;BME280;5473;42.706;23.328;2023-02-10T02:24:21;2528.81;;;-142.93;100.00
10840;BME280;5473;42.706;23.328;2023-02-10T02:27:20;2528.81;;;-142.93;100.00
10840;BME280;5473;42.706;23.328;2023-02-10T02:32:53;2276.78;;;-142.93;100.00
10840;BME280;5473;42.706;23.328;2023-02-10T02:35:24;2024.78;;;-142.93;100.00
10840;BME280;5473;42.706;23.328;2023-02-10T02:37:52;1772.81;;;-142.93;100.00
10840;BME280;5473;42.706;23.328;2023-02-10T02:40:20;1772.81;;;-142.93;100.00
10840;BME280;5473;42.706;23.328;2023-02-10T02:42:47;1772.81;;;-142.93;100.00
10840;BME280;5473;42.706;23.328;2023-02-10T02:45:17;1520.84;;;-142.93;100.00
10840;BME280;5473;42.706;23.328;2023-02-10T02:48:04;1520.84;;;-142.93;100.00
10840;BME280;5473;42.706;23.328;2023-02-10T02:50:35;1268.91;;;-142.93;100.00
10840;BME280;5473;42.706;23.328;2023-02-10T02:53:10;1268.91;;;-142.93;100.00
10840;BME280;5473;42.706;23.328;2023-02-10T02:55:50;1268.91;;;-142.93;100.00
10840;BME280;5473;42.706;23.328;2023-02-10T02:58:29;1520.84;;;-142.93;100.00
10840;BME280;5473;42.706;23.328;2023-02-10T03:01:00;1520.84;;;-142.93;100.00
10840;BME280;5473;42.706;23.328;2023-02-10T03:03:32;1520.84;;;-142.93;100.00
10840;BME280;5473;42.706;23.328;2023-02-10T03:05:59;1772.81;;;-142.93;100.00
10840;BME280;5473;42.706;23.328;2023-02-10T03:08:27;1772.81;;;-142.93;100.00
10840;BME280;5473;42.706;23.328;2023-02-10T03:10:54;1772.81;;;-142.93;100.00
10840;BME280;5473;42.706;23.328;2023-02-10T03:13:21;1772.81;;;-142.93;100.00
10840;BME280;5473;42.706;23.328;2023-02-10T03:15:48;1772.81;;;-142.93;100.00
10840;BME280;5473;42.706;23.328;2023-02-10T03:18:15;1772.81;;;-142.93;100.00
10840;BME280;5473;42.706;23.328;2023-02-10T03:20:43;1772.81;;;-142.93;100.00
10840;BME280;5473;42.706;23.328;2023-02-10T03:23:10;1772.81;;;-142.93;100.00
10840;BME280;5473;42.706;23.328;2023-02-10T03:25:37;1772.81;;;-142.93;100.00
10840;BME280;5473;42.706;23.328;2023-02-10T03:28:04;2024.78;;;-142.93;100.00
10840;BME280;5473;42.706;23.328;2023-02-10T03:30:32;2024.78;;;-142.93;100.00
10840;BME280;5473;42.706;23.328;2023-02-10T03:32:59;2024.78;;;-142.93;100.00
10840;BME280;5473;42.706;23.328;2023-02-10T03:35:26;2276.78;;;-142.93;100.00
10840;BME280;5473;42.706;23.328;2023-02-10T03:37:54;2024.78;;;-142.93;100.00
10840;BME280;5473;42.706;23.328;2023-02-10T03:40:20;1772.81;;;-142.93;100.00
10840;BME280;5473;42.706;23.328;2023-02-10T03:42:47;1772.81;;;-142.93;100.00
10840;BME280;5473;42.706;23.328;2023-02-10T03:45:14;1520.84;;;-142.93;100.00
10840;BME280;5473;42.706;23.328;2023-02-10T03:47:41;1520.84;;;-142.93;100.00
10840;BME280;5473;42.706;23.328;2023-02-10T03:50:07;1268.91;;;-142.93;100.00
10840;BME280;5473;42.706;23.328;2023-02-10T03:52:34;1016.97;;;-142.93;100.00
10840;BME280;5473;42.706;23.328;2023-02-10T03:55:03;1016.97;;;-142.93;100.00
10840;BME280;5473;42.706;23.328;2023-02-10T03:57:30;765.09;;;-142.93;100.00
10840;BME280;5473;42.706;23.328;2023-02-10T03:59:56;1016.97;;;-142.93;100.00
10840;BME280;5473;42.706;23.328;2023-02-10T04:02:23;1016.97;;;-142.93;100.00
10840;BME280;5473;42.706;23.328;2023-02-10T04:04:50;1016.97;;;-142.93;100.00
10840;BME280;5473;42.706;23.328;2023-02-10T04:07:17;1268.91;;;-142.93;100.00
10840;BME280;5473;42.706;23.328;2023-02-10T04:09:44;1520.84;;;-142.93;100.00
10840;BME280;5473;42.706;23.328;2023-02-10T04:12:12;1268.91;;;-142.93;100.00
10840;BME280;5473;42.706;23.328;2023-02-10T04:14:38;1268.91;;;-142.93;100.00
10840;BME280;5473;42.706;23.328;2023-02-10T04:17:05;1268.91;;;-142.93;100.00
10840;BME280;5473;42.706;23.328;2023-02-10T04:19:32;1016.97;;;-142.93;100.00
10840;BME280;5473;42.706;23.328;2023-02-10T04:21:59;1268.91;;;-142.93;100.00
10840;BME280;5473;42.706;23.328;2023-02-10T04:24:25;1016.97;;;-142.93;100.00
10840;BME280;5473;42.706;23.328;2023-02-10T04:26:53;1016.97;;;-142.93;100.00
10840;BME280;5473;42.706;23.328;2023-02-10T04:29:21;1016.97;;;-142.93;100.00
10840;BME280;5473;42.706;23.328;2023-02-10T04:31:48;1016.97;;;-142.93;100.00
10840;BME280;5473;42.706;23.328;2023-02-10T04:34:15;1016.97;;;-142.93;100.00
10840;BME280;5473;42.706;23.328;2023-02-10T04:36:41;1016.97;;;-142.93;100.00
10840;BME280;5473;42.706;23.328;2023-02-10T04:39:08;1016.97;;;-142.93;100.00
10840;BME280;5473;42.706;23.328;2023-02-10T04:41:35;1016.97;;;-142.93;100.00
10840;BME280;5473;42.706;23.328;2023-02-10T04:44:03;1016.97;;;-142.93;100.00
10840;BME280;5473;42.706;23.328;2023-02-10T04:46:32;1016.97;;;-142.93;100.00
10840;BME280;5473;42.706;23.328;2023-02-10T04:48:59;1268.91;;;-142.93;100.00
10840;BME280;5473;42.706;23.328;2023-02-10T04:51:25;1268.91;;;-142.93;100.00
10840;BME280;5473;42.706;23.328;2023-02-10T04:53:52;1520.84;;;-142.93;100.00
10840;BME280;5473;42.706;23.328;2023-02-10T04:56:19;1520.84;;;-142.93;100.00
10840;BME280;5473;42.706;23.328;2023-02-10T04:58:46;1772.81;;;-142.93;100.00
10840;BME280;5473;42.706;23.328;2023-02-10T05:01:12;1772.81;;;-142.93;100.00
10840;BME280;5473;42.706;23.328;2023-02-10T05:03:41;1520.84;;;-142.93;100.00
10840;BME280;5473;42.706;23.328;2023-02-10T05:06:09;1268.91;;;-142.93;100.00
10840;BME280;5473;42.706;23.328;2023-02-10T05:08:36;1268.91;;;-142.93;100.00
10840;BME280;5473;42.706;23.328;2023-02-10T05:11:06;1016.97;;;-142.93;100.00
10840;BME280;5473;42.706;23.328;2023-02-10T05:13:33;765.09;;;-142.93;100.00
10840;BME280;5473;42.706;23.328;2023-02-10T05:16:00;765.09;;;-142.93;100.00
10840;BME280;5473;42.706;23.328;2023-02-10T05:18:28;765.09;;;-142.93;100.00
10840;BME280;5473;42.706;23.328;2023-02-10T05:20:56;765.09;;;-142.93;100.00
10840;BME280;5473;42.706;23.328;2023-02-10T05:23:23;765.09;;;-142.93;100.00
10840;BME280;5473;42.706;23.328;2023-02-10T05:25:53;765.09;;;-142.93;100.00
10840;BME280;5473;42.706;23.328;2023-02-10T05:28:20;765.09;;;-142.93;100.00
10840;BME280;5473;42.706;23.328;2023-02-10T05:30:47;765.09;;;-142.93;100.00
10840;BME280;5473;42.706;23.328;2023-02-10T05:33:14;765.09;;;-142.93;100.00
10840;BME280;5473;42.706;23.328;2023-02-10T05:35:41;1016.97;;;-142.93;100.00
10840;BME280;5473;42.706;23.328;2023-02-10T05:38:10;1268.91;;;-142.93;100.00
10840;BME280;5473;42.706;23.328;2023-02-10T05:40:36;1268.91;;;-142.93;100.00
10840;BME280;5473;42.706;23.328;2023-02-10T05:43:03;1268.91;;;-142.93;100.00
10840;BME280;5473;42.706;23.328;2023-02-10T05:45:30;1268.91;;;-142.93;100.00
10840;BME280;5473;42.706;23.328;2023-02-10T05:47:57;1016.97;;;-142.93;100.00
10840;BME280;5473;42.706;23.328;2023-02-10T05:50:23;1016.97;;;-142.93;100.00
10840;BME280;5473;42.706;23.328;2023-02-10T05:52:50;1016.97;;;-142.93;100.00
10840;BME280;5473;42.706;23.328;2023-02-10T05:55:18;513.19;;;-142.93;100.00
10840;BME280;5473;42.706;23.328;2023-02-10T05:57:46;-242.34;;;-142.93;100.00
10840;BME280;5473;42.706;23.328;2023-02-10T06:00:14;-997.69;;;-142.93;100.00
10840;BME280;5473;42.706;23.328;2023-02-10T06:02:41;-1249.44;;;-142.93;100.00
10840;BME280;5473;42.706;23.328;2023-02-10T06:05:08;-745.94;;;-142.93;100.00
10840;BME280;5473;42.706;23.328;2023-02-10T06:07:34;-494.16;;;-142.93;100.00
10840;BME280;5473;42.706;23.328;2023-02-10T06:10:01;513.19;;;-142.93;100.00
10840;BME280;5473;42.706;23.328;2023-02-10T06:12:29;2276.78;;;-142.93;100.00
10840;BME280;5473;42.706;23.328;2023-02-10T06:14:56;3789.19;;;-142.93;100.00
10840;BME280;5473;42.706;23.328;2023-02-10T06:17:23;4797.84;;;-142.93;100.00
10840;BME280;5473;42.706;23.328;2023-02-10T06:19:51;5554.56;;;-142.93;100.00
10840;BME280;5473;42.706;23.328;2023-02-10T06:22:18;6059.09;;;-142.93;100.00
10840;BME280;5473;42.706;23.328;2023-02-10T06:24:45;6816.09;;;-142.93;100.00
10840;BME280;5473;42.706;23.328;2023-02-10T06:27:11;8078.13;;;-142.93;100.00
10840;BME280;5473;42.706;23.328;2023-02-10T06:29:41;9340.63;;;-142.93;100.00
10840;BME280;5473;42.706;23.328;2023-02-10T06:32:07;10603.63;;;-142.93;100.00
10840;BME280;5473;42.706;23.328;2023-02-10T06:34:34;11614.38;;;-142.93;100.00
10840;BME280;5473;42.706;23.328;2023-02-10T06:37:01;12372.66;;;-142.93;100.00
10840;BME280;5473;42.706;23.328;2023-02-10T06:39:28;12878.25;;;-142.93;100.00
10840;BME280;5473;42.706;23.328;2023-02-10T06:41:55;13383.94;;;-142.93;100.00
10840;BME280;5473;42.706;23.328;2023-02-10T06:44:23;14395.53;;;-142.93;100.00
10840;BME280;5473;42.706;23.328;2023-02-10T06:46:51;14901.44;;;-142.93;100.00
10840;BME280;5473;42.706;23.328;2023-02-10T06:49:18;15660.47;;;-142.93;100.00
10840;BME280;5473;42.706;23.328;2023-02-10T06:51:44;16672.75;;;-142.93;100.00
10840;BME280;5473;42.706;23.328;2023-02-10T06:54:11;16925.88;;;-142.93;100.00
10840;BME280;5473;42.706;23.328;2023-02-10T06:56:38;17179.00;;;-142.93;100.00
10840;BME280;5473;42.706;23.328;2023-02-10T06:59:06;17685.34;;;-142.93;100.00
10840;BME280;5473;42.706;23.328;2023-02-10T07:01:33;17938.56;;;-142.93;100.00
10840;BME280;5473;42.706;23.328;2023-02-10T07:04:01;18951.53;;;-142.93;100.00
10840;BME280;5473;42.706;23.328;2023-02-10T07:06:28;18445.00;;;-142.93;100.00
10840;BME280;5473;42.706;23.328;2023-02-10T07:08:55;20218.22;;;-142.93;100.00
10840;BME280;5473;42.706;23.328;2023-02-10T07:11:22;29261.22;;;-142.93;100.00
10840;BME280;5473;42.706;23.328;2023-02-10T07:13:49;36362.94;;;-142.93;100.00
10840;BME280;5473;42.706;23.328;2023-02-10T07:16:15;38601.47;;;-142.93;100.00
10840;BME280;5473;42.706;23.328;2023-02-10T07:18:42;38826.41;;;-142.93;100.00
10840;BME280;5473;42.706;23.328;2023-02-10T07:21:11;38577.59;;;-142.93;100.00
10840;BME280;5473;42.706;23.328;2023-02-10T07:23:38;38402.44;;;-142.93;100.00
10840;BME280;5473;42.706;23.328;2023-02-10T07:26:05;38255.16;;;-142.93;100.00
10840;BME280;5473;42.706;23.328;2023-02-10T07:28:32;38213.34;;;-142.93;100.00
10840;BME280;5473;42.706;23.328;2023-02-10T07:30:59;38191.47;;;-142.93;100.00
10840;BME280;5473;42.706;23.328;2023-02-10T07:33:28;38153.66;;;-142.93;100.00
10840;BME280;5473;42.706;23.328;2023-02-10T07:35:58;38157.63;;;-142.93;96.95
10840;BME280;5473;42.706;23.328;2023-02-10T07:38:26;38191.47;;;-142.93;96.29
10840;BME280;5473;42.706;23.328;2023-02-10T07:40:53;38159.63;;;-142.93;93.20
10840;BME280;5473;42.706;23.328;2023-02-10T07:43:20;38193.44;;;-142.93;93.11
10840;BME280;5473;42.706;23.328;2023-02-10T07:45:47;38203.41;;;-142.93;88.71
10840;BME280;5473;42.706;23.328;2023-02-10T07:48:15;38213.34;;;-142.93;90.71
10840;BME280;5473;42.706;23.328;2023-02-10T07:50:42;38211.38;;;-142.93;93.01
10840;BME280;5473;42.706;23.328;2023-02-10T07:53:09;38179.53;;;-142.93;91.85
10840;BME280;5473;42.706;23.328;2023-02-10T07:55:38;38191.47;;;-142.93;91.05
10840;BME280;5473;42.706;23.328;2023-02-10T07:58:04;38185.50;;;-142.93;87.17
10840;BME280;5473;42.706;23.328;2023-02-10T08:00:31;38183.50;;;-142.93;87.56
10840;BME280;5473;42.706;23.328;2023-02-10T08:02:58;38173.56;;;-142.93;82.77
10840;BME280;5473;42.706;23.328;2023-02-10T08:05:25;38191.47;;;-142.93;78.15
10840;BME280;5473;42.706;23.328;2023-02-10T08:07:53;38247.19;;;-142.93;75.61
10840;BME280;5473;42.706;23.328;2023-02-10T08:10:20;38263.09;;;-142.93;75.56
10840;BME280;5473;42.706;23.328;2023-02-10T08:12:48;38205.41;;;-142.93;76.01
10840;BME280;5473;42.706;23.328;2023-02-10T08:15:15;38193.44;;;-142.93;73.18
10840;BME280;5473;42.706;23.328;2023-02-10T08:17:42;38261.13;;;-142.93;69.88
10840;BME280;5473;42.706;23.328;2023-02-10T08:20:10;38273.06;;;-142.93;69.31
10840;BME280;5473;42.706;23.328;2023-02-10T08:22:38;38227.28;;;-142.93;70.53
10840;BME280;5473;42.706;23.328;2023-02-10T08:25:05;38261.13;;;-142.93;67.58
10840;BME280;5473;42.706;23.328;2023-02-10T08:27:32;38225.28;;;-142.93;65.90
10840;BME280;5473;42.706;23.328;2023-02-10T08:30:00;38211.38;;;-142.93;64.42
10840;BME280;5473;42.706;23.328;2023-02-10T08:32:30;38229.28;;;-142.93;62.78
10840;BME280;5473;42.706;23.328;2023-02-10T08:34:57;38287.00;;;-142.93;63.25
10840;BME280;5473;42.706;23.328;2023-02-10T08:37:25;38223.31;;;-142.93;62.51
10840;BME280;5473;42.706;23.328;2023-02-10T08:39:52;38237.25;;;-142.93;61.51
10840;BME280;5473;42.706;23.328;2023-02-10T08:42:18;38251.16;;;-142.93;60.41
10840;BME280;5473;42.706;23.328;2023-02-10T08:44:45;38249.19;;;-142.93;58.70
10840;BME280;5473;42.706;23.328;2023-02-10T08:47:13;38283.00;;;-142.93;57.74
10840;BME280;5473;42.706;23.328;2023-02-10T08:49:40;38275.06;;;-142.93;59.50
10840;BME280;5473;42.706;23.328;2023-02-10T08:52:08;38285.00;;;-142.93;60.44
10840;BME280;5473;42.706;23.328;2023-02-10T08:54:35;38288.97;;;-142.93;60.05
10840;BME280;5473;42.706;23.328;2023-02-10T08:57:02;38300.94;;;-142.93;59.70
10840;BME280;5473;42.706;23.328;2023-02-10T08:59:30;38298.94;;;-142.93;62.16
10840;BME280;5473;42.706;23.328;2023-02-10T09:01:56;38310.88;;;-142.93;61.22
10840;BME280;5473;42.706;23.328;2023-02-10T09:04:24;38255.16;;;-142.93;60.19
10840;BME280;5473;42.706;23.328;2023-02-10T09:06:51;38259.13;;;-142.93;56.91
10840;BME280;5473;42.706;23.328;2023-02-10T09:09:21;38292.97;;;-142.93;54.25
10840;BME280;5473;42.706;23.328;2023-02-10T09:11:50;38298.94;;;-142.93;52.93
10840;BME280;5473;42.706;23.328;2023-02-10T09:14:17;38306.91;;;-142.93;55.84
10840;BME280;5473;42.706;23.328;2023-02-10T09:16:44;38271.06;;;-142.93;54.34
10840;BME280;5473;42.706;23.328;2023-02-10T09:19:11;38316.84;;;-142.93;56.10
10840;BME280;5473;42.706;23.328;2023-02-10T09:21:39;38273.06;;;-142.93;56.25
10840;BME280;5473;42.706;23.328;2023-02-10T09:24:06;38287.00;;;-142.93;55.08
10840;BME280;5473;42.706;23.328;2023-02-10T09:26:33;38328.78;;;-142.93;56.53
10840;BME280;5473;42.706;23.328;2023-02-10T09:29:00;38320.81;;;-142.93;57.53
10840;BME280;5473;42.706;23.328;2023-02-10T09:31:28;38285.00;;;-142.93;58.07
10840;BME280;5473;42.706;23.328;2023-02-10T09:33:55;38285.00;;;-142.93;57.43
10840;BME280;5473;42.706;23.328;2023-02-10T09:36:22;38271.06;;;-142.93;54.86
10840;BME280;5473;42.706;23.328;2023-02-10T09:38:50;38288.97;;;-142.93;55.43
10840;BME280;5473;42.706;23.328;2023-02-10T09:41:27;38259.13;;;-142.93;55.12
10840;BME280;5473;42.706;23.328;2023-02-10T09:44:04;38275.06;;;-142.93;54.24
10840;BME280;5473;42.706;23.328;2023-02-10T09:46:42;38257.13;;;-142.93;52.54
10840;BME280;5473;42.706;23.328;2023-02-10T09:49:27;38300.94;;;-142.93;51.84
10840;BME280;5473;42.706;23.328;2023-02-10T09:52:07;38308.88;;;-142.93;53.23
10840;BME280;5473;42.706;23.328;2023-02-10T09:54:39;38287.00;;;-142.93;52.25
10840;BME280;5473;42.706;23.328;2023-02-10T09:57:11;38374.56;;;-142.93;55.76
10840;BME280;5473;42.706;23.328;2023-02-10T09:59:41;38283.00;;;-142.93;54.49
10840;BME280;5473;42.706;23.328;2023-02-10T10:02:13;38316.84;;;-142.93;56.25
10840;BME280;5473;42.706;23.328;2023-02-10T10:04:43;38312.88;;;-142.93;59.55
10840;BME280;5473;42.706;23.328;2023-02-10T10:07:18;38328.78;;;-142.93;60.19
10840;BME280;5473;42.706;23.328;2023-02-10T10:09:56;38406.41;;;-142.93;59.98
10840;BME280;5473;42.706;23.328;2023-02-10T10:12:25;38336.75;;;-142.93;60.16
10840;BME280;5473;42.706;23.328;2023-02-10T10:14:53;38288.97;;;-142.93;59.17
10840;BME280;5473;42.706;23.328;2023-02-10T10:17:36;38304.91;;;-142.93;58.59
10840;BME280;5473;42.706;23.328;2023-02-10T10:20:37;38245.19;;;-142.93;54.29
10840;BME280;5473;42.706;23.328;2023-02-10T10:23:17;38287.00;;;-142.93;50.73
10840;BME280;5473;42.706;23.328;2023-02-10T10:25:57;38302.91;;;-142.93;51.77
10840;BME280;5473;42.706;23.328;2023-02-10T10:28:36;38298.94;;;-142.93;51.14
10840;BME280;5473;42.706;23.328;2023-02-10T10:31:11;38296.94;;;-142.93;52.50
10840;BME280;5473;42.706;23.328;2023-02-10T10:33:44;38273.06;;;-142.93;53.13
10840;BME280;5473;42.706;23.328;2023-02-10T10:36:16;38304.91;;;-142.93;55.12
10840;BME280;5473;42.706;23.328;2023-02-10T10:38:48;38330.78;;;-142.93;53.42
10840;BME280;5473;42.706;23.328;2023-02-10T10:41:17;38269.09;;;-142.93;50.58
10840;BME280;5473;42.706;23.328;2023-02-10T10:43:48;38283.00;;;-142.93;47.90
10840;BME280;5473;42.706;23.328;2023-02-10T10:46:19;38292.97;;;-142.93;49.44
10840;BME280;5473;42.706;23.328;2023-02-10T10:48:48;38316.84;;;-142.93;49.26
10840;BME280;5473;42.706;23.328;2023-02-10T10:51:15;38267.09;;;-142.93;50.64
10840;BME280;5473;42.706;23.328;2023-02-10T10:53:46;38285.00;;;-142.93;46.78
10840;BME280;5473;42.706;23.328;2023-02-10T10:56:25;38372.56;;;-142.93;48.82
10840;BME280;5473;42.706;23.328;2023-02-10T10:58:56;38342.72;;;-142.93;55.52
10840;BME280;5473;42.706;23.328;2023-02-10T11:01:32;38243.22;;;-142.93;52.60
10840;BME280;5473;42.706;23.328;2023-02-10T11:04:09;38277.03;;;-142.93;50.97
10840;BME280;5473;42.706;23.328;2023-02-10T11:06:37;38283.00;;;-142.93;48.92
10840;BME280;5473;42.706;23.328;2023-02-10T11:09:19;38296.94;;;-142.93;45.82
10840;BME280;5473;42.706;23.328;2023-02-10T11:11:49;38312.88;;;-142.93;46.59
10840;BME280;5473;42.706;23.328;2023-02-10T11:14:18;38283.00;;;-142.93;46.95
10840;BME280;5473;42.706;23.328;2023-02-10T11:16:49;38275.06;;;-142.93;44.27
10840;BME280;5473;42.706;23.328;2023-02-10T11:19:22;38279.03;;;-142.93;44.10
10840;BME280;5473;42.706;23.328;2023-02-10T11:21:50;38255.16;;;-142.93;42.76
10840;BME280;5473;42.706;23.328;2023-02-10T11:24:21;38314.84;;;-142.93;42.93
10840;BME280;5473;42.706;23.328;2023-02-10T11:27:00;38314.84;;;-142.93;48.86
10840;BME280;5473;42.706;23.328;2023-02-10T11:29:29;38320.81;;;-142.93;48.16
10840;BME280;5473;42.706;23.328;2023-02-10T11:31:56;38292.97;;;-142.93;45.97
10840;BME280;5473;42.706;23.328;2023-02-10T11:34:26;38342.72;;;-142.93;49.27
10840;BME280;5473;42.706;23.328;2023-02-10T11:36:56;38348.69;;;-142.93;50.33
10840;BME280;5473;42.706;23.328;2023-02-10T11:39:27;38346.69;;;-142.93;51.01
10840;BME280;5473;42.706;23.328;2023-02-10T11:41:55;38320.81;;;-142.93;50.01
10840;BME280;5473;42.706;23.328;2023-02-10T11:44:28;38322.81;;;-142.93;52.53
10840;BME280;5473;42.706;23.328;2023-02-10T11:46:57;38442.25;;;-142.93;53.18
10840;BME280;5473;42.706;23.328;2023-02-10T11:49:24;38288.97;;;-142.93;49.06
10840;BME280;5473;42.706;23.328;2023-02-10T11:51:57;38257.13;;;-142.93;45.04
10840;BME280;5473;42.706;23.328;2023-02-10T11:54:24;38288.97;;;-142.93;43.39
10840;BME280;5473;42.706;23.328;2023-02-10T11:57:00;38261.13;;;-142.93;43.45
10840;BME280;5473;42.706;23.328;2023-02-10T11:59:54;38261.13;;;-142.93;43.10
10840;BME280;5473;42.706;23.328;2023-02-10T12:02:39;38243.22;;;-142.93;42.70
10840;BME280;5473;42.706;23.328;2023-02-10T12:05:22;38265.09;;;-142.93;41.23
10840;BME280;5473;42.706;23.328;2023-02-10T12:08:02;38261.13;;;-142.93;41.99
10840;BME280;5473;42.706;23.328;2023-02-10T12:10:39;38285.00;;;-142.93;43.83
10840;BME280;5473;42.706;23.328;2023-02-10T12:13:16;38296.94;;;-142.93;46.31
10840;BME280;5473;42.706;23.328;2023-02-10T12:15:52;38296.94;;;-142.93;45.91
10840;BME280;5473;42.706;23.328;2023-02-10T12:18:33;38308.88;;;-142.93;44.90
10840;BME280;5473;42.706;23.328;2023-02-10T12:21:13;38322.81;;;-142.93;45.33
10840;BME280;5473;42.706;23.328;2023-02-10T12:23:55;38310.88;;;-142.93;46.79
10840;BME280;5473;42.706;23.328;2023-02-10T12:26:27;38320.81;;;-142.93;46.18
10840;BME280;5473;42.706;23.328;2023-02-10T12:29:05;38292.97;;;-142.93;46.33
10840;BME280;5473;42.706;23.328;2023-02-10T12:31:44;38296.94;;;-142.93;44.53
10840;BME280;5473;42.706;23.328;2023-02-10T12:34:36;38302.91;;;-142.93;45.57
10840;BME280;5473;42.706;23.328;2023-02-10T12:37:15;38388.50;;;-142.93;44.15
10840;BME280;5473;42.706;23.328;2023-02-10T12:39:54;38300.94;;;-142.93;44.76
10840;BME280;5473;42.706;23.328;2023-02-10T12:42:39;38300.94;;;-142.93;45.95
10840;BME280;5473;42.706;23.328;2023-02-10T12:45:17;38364.63;;;-142.93;48.56
10840;BME280;5473;42.706;23.328;2023-02-10T12:47:58;38370.59;;;-142.93;50.96
10840;BME280;5473;42.706;23.328;2023-02-10T12:50:43;38358.66;;;-142.93;51.53
10840;BME280;5473;42.706;23.328;2023-02-10T12:53:16;38350.69;;;-142.93;53.02